createdAt,value
2023-04-28T00:00:37.874Z,100882.44
2023-04-28T00:05:39.361Z,100886.19
2023-04-28T00:10:41.056Z,100882.10
2023-04-28T00:15:42.565Z,100885.86
2023-04-28T00:20:44.493Z,100886.23
2023-04-28T00:25:52.086Z,100886.55
2023-04-28T00:30:53.617Z,100885.70
2023-04-28T00:36:01.704Z,100885.10
2023-04-28T00:41:04.035Z,100882.54
2023-04-28T00:46:05.625Z,100889.71
2023-04-28T00:51:08.075Z,100888.00
2023-04-28T00:56:10.505Z,100892.79
2023-04-28T01:01:12.307Z,100892.16
2023-04-28T01:06:14.729Z,100894.42
2023-04-28T01:11:16.588Z,100895.51
2023-04-28T01:16:18.567Z,100900.55
2023-04-28T01:21:30.441Z,100897.59
2023-04-28T01:26:31.969Z,100897.48
2023-04-28T01:31:33.544Z,100899.25
2023-04-28T01:36:37.257Z,100900.36
2023-04-28T01:41:39.164Z,100902.48
2023-04-28T01:46:41.050Z,100900.64
2023-04-28T01:51:43.026Z,100903.84
2023-04-28T01:56:45.005Z,100904.84
2023-04-28T02:01:46.766Z,100905.48
2023-04-28T02:06:48.780Z,100900.59
2023-04-28T02:11:50.400Z,100906.79
2023-04-28T02:16:51.939Z,100909.06
2023-04-28T02:21:53.421Z,100909.88
2023-04-28T02:26:54.902Z,100908.24
2023-04-28T02:31:56.460Z,100912.75
2023-04-28T02:36:58.010Z,100909.95
2023-04-28T02:41:59.528Z,100907.52
2023-04-28T02:47:01.912Z,100907.95
2023-04-28T02:52:03.773Z,100909.06
2023-04-28T02:57:05.261Z,100917.45
2023-04-28T03:02:06.768Z,100915.70
2023-04-28T03:07:08.329Z,100918.38
2023-04-28T03:12:09.849Z,100924.98
2023-04-28T03:17:11.590Z,100925.11
2023-04-28T03:22:13.114Z,100925.60
2023-04-28T03:27:14.634Z,100929.69
2023-04-28T03:32:16.534Z,100936.52
2023-04-28T03:37:18.348Z,100940.65
2023-04-28T03:42:19.846Z,100941.36
2023-04-28T03:47:21.456Z,100938.83
2023-04-28T03:52:23.008Z,100935.19
2023-04-28T03:57:24.581Z,100927.14
2023-04-28T04:02:26.314Z,100930.65
2023-04-28T04:07:27.971Z,100930.80
2023-04-28T04:12:29.473Z,100937.55
2023-04-28T04:17:31.586Z,100943.50
2023-04-28T04:22:33.116Z,100951.48
2023-04-28T04:27:34.622Z,100950.84
2023-04-28T04:32:36.122Z,100943.70
2023-04-28T04:37:37.920Z,100950.42
2023-04-28T04:42:39.462Z,100958.50
2023-04-28T04:47:41.525Z,100958.88
2023-04-28T04:52:43.240Z,100954.70
2023-04-28T04:57:44.752Z,100955.70
2023-04-28T05:02:46.358Z,100953.00
2023-04-28T05:07:48.201Z,100959.39
2023-04-28T05:12:49.860Z,100964.86
2023-04-28T05:17:51.479Z,100965.98
2023-04-28T05:22:53.127Z,100961.64
2023-04-28T05:27:56.543Z,100961.75
2023-04-28T05:32:58.096Z,100970.88
2023-04-28T05:37:59.831Z,100963.92
2023-04-28T05:43:01.492Z,100959.20
2023-04-28T05:48:05.110Z,100965.92
2023-04-28T05:53:07.589Z,100968.71
2023-04-28T05:58:09.260Z,100970.80
2023-04-28T06:03:11.533Z,100973.21
2023-04-28T06:08:13.382Z,100974.98
2023-04-28T06:13:15.113Z,100975.04
2023-04-28T06:18:16.726Z,100973.36
2023-04-28T06:23:18.268Z,100973.73
2023-04-28T06:28:19.839Z,100973.74
2023-04-28T06:33:21.868Z,100974.96
2023-04-28T06:38:23.458Z,100979.24
2023-04-28T06:43:24.984Z,100980.45
2023-04-28T06:48:26.645Z,100980.48
2023-04-28T06:53:28.167Z,100979.95
2023-04-28T06:58:29.818Z,100978.77
2023-04-28T07:03:31.504Z,100980.81
2023-04-28T07:08:33.396Z,100977.89
2023-04-28T07:13:35.079Z,100978.57
2023-04-28T07:18:36.590Z,100975.64
2023-04-28T07:23:38.845Z,100971.69
2023-04-28T07:28:40.427Z,100967.90
2023-04-28T07:33:41.920Z,100967.20
2023-04-28T07:38:43.641Z,100962.38
2023-04-28T07:43:45.321Z,100953.17
2023-04-28T07:48:46.859Z,100951.61
2023-04-28T07:53:48.373Z,100945.10
2023-04-28T07:58:50.051Z,100944.21
2023-04-28T08:03:54.202Z,100942.79
2023-04-28T08:08:56.073Z,100935.45
2023-04-28T08:14:01.327Z,100929.90
2023-04-28T08:19:02.865Z,100928.98
2023-04-28T08:24:05.153Z,100922.48
2023-04-28T08:29:06.660Z,100920.69
2023-04-28T08:34:08.171Z,100918.39
2023-04-28T08:39:10.744Z,100918.91
2023-04-28T08:44:14.251Z,100913.70
2023-04-28T08:49:18.544Z,100909.96
2023-04-28T08:54:26.649Z,100908.45
2023-04-28T08:59:28.989Z,100908.59
2023-04-28T09:04:30.830Z,100906.21
2023-04-28T09:09:34.996Z,100904.84
2023-04-28T09:14:39.216Z,100904.48
2023-04-28T09:19:44.684Z,100899.84
2023-04-28T09:24:47.141Z,100899.63
2023-04-28T09:29:54.075Z,100891.54
2023-04-28T09:34:59.884Z,100885.16
2023-04-28T09:40:09.933Z,100883.93
2023-04-28T09:45:14.089Z,100883.00
2023-04-28T09:50:17.758Z,100873.80
2023-04-28T09:55:20.806Z,100864.77
2023-04-28T10:00:30.655Z,100861.50
2023-04-28T10:05:34.111Z,100859.77
2023-04-28T10:10:37.801Z,100850.98
2023-04-28T10:15:39.690Z,100844.00
2023-04-28T10:20:47.134Z,100837.87
2023-04-28T10:25:52.959Z,100830.54
2023-04-28T10:31:11.896Z,100828.70
2023-04-28T10:36:55.853Z,100822.38
2023-04-28T10:41:57.477Z,100814.40
2023-04-28T10:47:06.965Z,100815.66
2023-04-28T10:52:40.753Z,100809.04
2023-04-28T10:57:42.928Z,100799.67
2023-04-28T11:02:47.139Z,100801.10
2023-04-28T11:08:26.224Z,100802.08
2023-04-28T11:13:31.779Z,100795.73
2023-04-28T11:18:55.489Z,100794.12
2023-04-28T11:23:58.830Z,100793.02
2023-04-28T11:29:00.414Z,100789.92
2023-04-28T11:34:07.838Z,100783.83
2023-04-28T11:39:10.963Z,100783.73
2023-04-28T11:44:17.729Z,100787.40
2023-04-28T11:49:20.739Z,100781.25
2023-04-28T11:54:27.656Z,100774.73
2023-04-28T11:59:31.718Z,100765.80
2023-04-28T12:04:38.359Z,100758.58
2023-04-28T12:09:43.569Z,100752.61
2023-04-28T12:14:59.438Z,100755.75
2023-04-28T12:20:03.662Z,100754.83
2023-04-28T12:25:07.022Z,100747.14
2023-04-28T12:30:23.742Z,100745.66
2023-04-28T12:35:26.884Z,100735.08
2023-04-28T12:40:28.424Z,100723.61
2023-04-28T12:45:31.347Z,100717.95
2023-04-28T12:50:33.292Z,100714.84
2023-04-28T12:55:35.021Z,100707.23
2023-04-28T13:00:40.263Z,100706.44
2023-04-28T13:05:41.873Z,100704.25
2023-04-28T13:10:43.646Z,100700.77
2023-04-28T13:15:46.515Z,100701.48
2023-04-28T13:20:47.955Z,100699.89
2023-04-28T13:25:50.834Z,100692.67
2023-04-28T13:30:52.491Z,100683.84
2023-04-28T13:35:53.973Z,100681.54
2023-04-28T13:40:55.473Z,100676.15
2023-04-28T13:45:57.328Z,100669.20
2023-04-28T13:50:58.851Z,100662.89
2023-04-28T13:56:00.341Z,100652.06
2023-04-28T14:01:03.807Z,100648.50
2023-04-28T14:06:07.103Z,100645.33
2023-04-28T14:11:09.509Z,100638.83
2023-04-28T14:16:12.335Z,100634.26
2023-04-28T14:21:13.948Z,100632.14
2023-04-28T14:26:15.514Z,100629.86
2023-04-28T14:31:18.338Z,100622.55
2023-04-28T14:36:20.722Z,100620.09
2023-04-28T14:41:22.286Z,100616.98
2023-04-28T14:46:24.228Z,100610.67
2023-04-28T14:51:26.142Z,100606.29
2023-04-28T14:56:27.624Z,100602.74
2023-04-28T15:01:31.252Z,100602.80
2023-04-28T15:06:33.713Z,100602.42
2023-04-28T15:11:35.335Z,100594.20
2023-04-28T15:16:37.116Z,100586.24
2023-04-28T15:21:39.222Z,100583.24
2023-04-28T15:26:40.773Z,100579.40
2023-04-28T15:31:42.368Z,100573.38
2023-04-28T15:36:44.771Z,100573.79
2023-04-28T15:41:47.153Z,100567.36
2023-04-28T15:46:48.719Z,100559.33
2023-04-28T15:51:50.515Z,100553.91
2023-04-28T15:56:52.026Z,100551.55
2023-04-28T16:01:55.506Z,100556.40
2023-04-28T16:06:58.880Z,100557.20
2023-04-28T16:12:01.077Z,100555.54
2023-04-28T16:17:02.595Z,100548.16
2023-04-28T16:22:04.109Z,100549.70
2023-04-28T16:27:06.082Z,100546.23
2023-04-28T16:32:07.729Z,100543.16
2023-04-28T16:37:10.936Z,100544.80
2023-04-28T16:42:12.442Z,100540.84
2023-04-28T16:47:15.227Z,100537.77
2023-04-28T16:52:17.036Z,100538.31
2023-04-28T16:57:18.697Z,100531.89
2023-04-28T17:02:20.321Z,100526.72
2023-04-28T17:07:24.060Z,100522.04
2023-04-28T17:12:27.146Z,100527.30
2023-04-28T17:17:29.197Z,100528.53
2023-04-28T17:22:34.786Z,100525.10
2023-04-28T17:27:36.372Z,100522.89
2023-04-28T17:32:38.722Z,100523.48
2023-04-28T17:37:40.253Z,100518.39
2023-04-28T17:42:45.262Z,100517.12
2023-04-28T17:47:47.114Z,100517.85
2023-04-28T17:52:48.945Z,100515.38
2023-04-28T17:57:51.821Z,100512.75
2023-04-28T18:02:55.177Z,100509.58
2023-04-28T18:08:02.018Z,100512.10
2023-04-28T18:13:03.550Z,100514.23
2023-04-28T18:18:05.103Z,100510.65
2023-04-28T18:23:07.241Z,100509.95
2023-04-28T18:28:10.458Z,100515.31
2023-04-28T18:33:11.963Z,100516.40
2023-04-28T18:38:13.893Z,100512.70
2023-04-28T18:43:15.572Z,100516.77
2023-04-28T18:48:17.194Z,100517.02
2023-04-28T18:53:19.059Z,100520.30
2023-04-28T18:58:21.097Z,100518.45
2023-04-28T19:03:23.771Z,100509.73
2023-04-28T19:08:25.358Z,100508.91
2023-04-28T19:13:27.438Z,100508.95
2023-04-28T19:18:31.233Z,100512.86
2023-04-28T19:23:33.909Z,100508.92
2023-04-28T19:28:36.050Z,100508.97
2023-04-28T19:33:37.564Z,100503.92
2023-04-28T19:38:40.375Z,100500.23
2023-04-28T19:43:43.511Z,100500.52
2023-04-28T19:48:46.685Z,100503.33
2023-04-28T19:53:49.387Z,100505.44
2023-04-28T19:58:51.071Z,100510.38
2023-04-28T20:03:54.186Z,100509.95
2023-04-28T20:08:55.905Z,100507.18
2023-04-28T20:13:57.530Z,100508.77
2023-04-28T20:18:59.115Z,100508.15
2023-04-28T20:24:00.585Z,100502.74
2023-04-28T20:29:03.342Z,100506.37
2023-04-28T20:34:04.878Z,100510.36
2023-04-28T20:39:07.710Z,100514.56
2023-04-28T20:44:09.225Z,100515.83
2023-04-28T20:49:12.378Z,100509.73
2023-04-28T20:54:14.520Z,100508.92
2023-04-28T20:59:16.078Z,100506.60
2023-04-28T21:04:17.631Z,100504.80
2023-04-28T21:09:20.297Z,100501.92
2023-04-28T21:14:22.210Z,100499.23
2023-04-28T21:19:23.733Z,100492.41
2023-04-28T21:24:25.286Z,100492.98
2023-04-28T21:29:27.624Z,100495.42
2023-04-28T21:34:29.337Z,100492.90
2023-04-28T21:39:30.873Z,100496.04
2023-04-28T21:44:32.343Z,100497.63
2023-04-28T21:49:33.822Z,100492.19
2023-04-28T21:54:35.841Z,100490.88
2023-04-28T21:59:37.387Z,100490.93
2023-04-28T22:04:39.017Z,100491.31
2023-04-28T22:09:40.739Z,100491.02
2023-04-28T22:14:42.231Z,100491.93
2023-04-28T22:19:43.802Z,100488.70
2023-04-28T22:24:45.447Z,100488.95
2023-04-28T22:29:47.741Z,100483.50
2023-04-28T22:34:49.631Z,100481.46
2023-04-28T22:39:51.488Z,100480.64
2023-04-28T22:44:53.363Z,100476.73
2023-04-28T22:49:55.102Z,100475.23
2023-04-28T22:54:56.789Z,100470.30
2023-04-28T22:59:58.552Z,100465.37
2023-04-28T23:05:01.187Z,100463.02
2023-04-28T23:10:05.072Z,100459.97
2023-04-28T23:15:07.477Z,100461.53
2023-04-28T23:20:09.851Z,100460.35
2023-04-28T23:25:11.557Z,100455.90
2023-04-28T23:30:13.330Z,100455.73
2023-04-28T23:35:15.386Z,100453.88
2023-04-28T23:40:16.910Z,100453.38
2023-04-28T23:45:18.561Z,100446.75
2023-04-28T23:50:20.050Z,100440.28
2023-04-28T23:55:21.564Z,100434.67
